02:13
Airports
Links
Donate
Help keep this website running!
PayPal
Bitcoin
METAR
KLAX 260153Z 27010KT 10SM FEW100 SCT150 BKN200 18/11 A2986 RMK AO2 SLP109 T01780111
Current Weather Conditions at KLAX
VFR 01:53:00 26-04-17
Automated station
Altimeter:29.86 hg
Temp:17.8°c 63°f
Dew point:11.1°c 52°f
Wind:10 knots, 11.5 mph, 5 m/s, from 270°
Visibility:10.0 statute miles
20000(BKN) Broken
15000(SCT) Scattered
10000(FEW) A few
Past METAR reports
VFR 00:53:00 26-04-17
Automated station
Altimeter:29.85 hg
Temp:17.8°c 63°f
Dew point:11.1°c 52°f
Wind:13 knots, 15 mph, 7 m/s, from 280°
Visibility:10.0 statute miles
20000(BKN) Broken
15000(SCT) Scattered
KLAX 260053Z 28013KT 10SM SCT150 BKN200 18/11 A2985 RMK AO2 SLP108 T01780111
VFR 23:53:00 25-04-17
Automated station
Altimeter:29.86 hg
Temp:18.9°c 64°f
Dew point:11.7°c 52°f
Wind:12 knots, 13.8 mph, 6 m/s, from 280°
Visibility:10.0 statute miles
20000(BKN) Broken
15000(SCT) Scattered
KLAX 252353Z 28012KT 10SM SCT150 BKN200 19/12 A2986 RMK AO2 SLP110 T01890117 10222 20178 56010
VFR 22:53:00 25-04-17
Automated station
Altimeter:29.87 hg
Temp:19.4°c 66°f
Dew point:11.1°c 52°f
Wind:19 knots, 21.9 mph, 10 m/s, from 270°
Visibility:10.0 statute miles
20000(SCT) Scattered
15000(SCT) Scattered
KLAX 252253Z 27019KT 10SM SCT150 SCT200 19/11 A2987 RMK AO2 SLP112 T01940111
VFR 21:53:00 25-04-17
Automated station
Altimeter:29.88 hg
Temp:20.0°c 68°f
Dew point:11.1°c 52°f
Wind:20 knots, 23 mph, 10 m/s, from 280°
Visibility:10.0 statute miles
20000(BKN) Broken
15000(SCT) Scattered
KLAX 252153Z 28020KT 10SM SCT150 BKN200 20/11 A2988 RMK AO2 PK WND 28026/2114 SLP118 T02000111
VFR 20:53:00 25-04-17
Automated station
Altimeter:29.89 hg
Temp:20.0°c 68°f
Dew point:10.0°c 50°f
Wind:20 knots, 23 mph, 10 m/s, from 270°
Visibility:10.0 statute miles
20000(BKN) Broken
16000(SCT) Scattered
9000(FEW) A few
2700(FEW) A few
KLAX 252053Z 27020KT 10SM FEW027 FEW090 SCT160 BKN200 20/10 A2989 RMK AO2 SLP120 T02000100 58009
TAF
KLAX 252333Z 2600/2706 27020KT P6SM SCT200 FM260300 33013KT P6SM SKC FM260500 26008KT P6SM SKC FM260800 03004KT P6SM SKC FM261700 28008KT P6SM SKC FM262000 26015KT P6SM SKC FM270300 26007KT 5SM BR FEW250
Forecast at KLAX
00:00 26-04-17 to 03:00 26-04-17
Wind:20 Knots from 270°
Visibility:6.21 statute miles
20000SCT Scattered
FM 03:00 26-04-17 to 05:00 26-04-17
Wind:13 Knots from 330°
Visibility:6.21 statute miles
SKC Clear
FM 05:00 26-04-17 to 08:00 26-04-17
Wind:8 Knots from 260°
Visibility:6.21 statute miles
SKC Clear
FM 08:00 26-04-17 to 17:00 26-04-17
Wind:4 Knots from 30°
Visibility:6.21 statute miles
SKC Clear
FM 17:00 26-04-17 to 20:00 26-04-17
Wind:8 Knots from 280°
Visibility:6.21 statute miles
SKC Clear
FM 20:00 26-04-17 to 03:00 27-04-17
Wind:15 Knots from 260°
Visibility:6.21 statute miles
SKC Clear
FM 03:00 27-04-17 to 06:00 27-04-17
BR
Wind:7 Knots from 260°
Visibility:5.0 statute miles
25000FEW A few